• Join FlightAware (Why Join?)
  • Login
  • US Flag 
04:10PM EDT


 

Airport Tracker/Info


-or-


 

Live Flight TrackerFlight Track Log ✈ FDX60 ✈ 23-Apr-2013 ✈ RJBB / KIX - KMEM

Flight Track Log - Related Links

Times and Time Zones

All times are in EDT time to prevent confusion due to time zone crossing. See the FDX60 flight status page for this flight to view local times or setup timezone preferences in your user account.

Time Position Orientation Groundspeed Altitude Reporting Facility
EDT Latitude Longitude Course Direction KTS MPH feet Rate Location/Type
01:27PM 34.4460 135.2720 49° Northeast 192 221 900  Level FlightAware
01:28PM 34.4660 135.2950 43° Northeast 202 232 2,100 2,280 Climbing FlightAware
01:28PM 34.4860 135.3100 32° Northeast 210 242 3,000 1,620 Climbing FlightAware
01:29PM 34.5160 135.2970 340° North 243 280 3,600 1,440 Climbing FlightAware
01:29PM 34.5300 135.2870 330° Northwest 253 291 4,100 2,160 Climbing FlightAware
01:29PM 34.5400 135.2680 303° West 261 300 4,700 2,520 Climbing FlightAware
01:30PM 34.5490 135.2330 287° West 269 310 5,800 2,700 Climbing FlightAware
01:30PM 34.5470 135.2100 264° West 273 314 6,500 2,760 Climbing FlightAware
01:30PM 34.5370 135.1900 239° Southwest 280 322 7,200 2,760 Climbing FlightAware
01:30PM 34.5210 135.1770 214° Southwest 282 325 7,900 2,820 Climbing FlightAware
01:31PM 34.4930 135.1560 212° Southwest 284 327 9,100 2,220 Climbing FlightAware
01:32PM 34.4400 135.1190 210° Southwest 313 360 10,500 1,500 Climbing FlightAware
01:32PM 34.3860 135.0810 210° Southwest 356 410 11,300 1,500 Climbing FlightAware
01:33PM 34.3260 135.0390 210° Southwest 381 438 12,500 2,040 Climbing FlightAware
01:33PM 34.2670 135.0140 199° South 406 467 13,900 2,280 Climbing FlightAware
01:34PM 34.2290 135.0190 174° South 417 480 14,600 2,160 Climbing FlightAware
01:35PM 34.1410 135.0440 167° South 435 501 16,300 2,220 Climbing FlightAware
01:35PM 34.0890 135.0830 148° Southeast 452 520 17,400 1,920 Climbing FlightAware
01:35PM 34.0600 135.1370 123° Southeast 465 535 18,100 1,620 Climbing FlightAware
01:36PM 34.0530 135.1750 103° East 471 542 18,500 1,560 Climbing FlightAware
01:36PM 34.0630 135.2520 81° East 470 541 19,300 1,680 Climbing FlightAware
01:37PM 34.1120 135.3360 55° Northeast 464 534 20,500 1,620 Climbing FlightAware
01:38PM 34.1640 135.4220 54° Northeast 482 555 21,500 1,500 Climbing FlightAware
01:38PM 34.2090 135.5340 64° Northeast 503 579 22,700 1,620 Climbing FlightAware
01:39PM 34.2480 135.6370 65° Northeast 514 592 23,800 1,680 Climbing FlightAware
01:40PM 34.2860 135.7420 66° East 517 595 25,000 1,680 Climbing FlightAware
01:40PM 34.3310 135.8620 66° East 525 604 26,200 1,500 Climbing FlightAware
01:41PM 34.3710 135.9690 66° East 530 610 27,200 1,320 Climbing FlightAware
01:42PM 34.4170 136.0930 66° East 538 619 28,100 1,200 Climbing FlightAware
01:42PM 34.4580 136.2030 66° East 548 631 28,900 1,200 Climbing FlightAware
01:43PM 34.5000 136.3170 66° East 555 639 29,700 780 Climbing FlightAware
01:44PM 34.5420 136.4310 66° East 557 641 30,000 180 Climbing FlightAware
01:45PM 34.5890 136.5590 66° East 557 641 30,000  Level FlightAware
01:45PM 34.6310 136.6740 66° East 558 642 30,000  Level FlightAware
01:46PM 34.6770 136.8000 66° East 558 642 30,000  Level FlightAware
01:47PM 34.7200 136.9180 66° East 557 641 30,000  Level FlightAware
01:47PM 34.7660 137.0470 67° East 556 640 30,000  Level FlightAware
01:48PM 34.8080 137.1620 66° East 553 636 30,000  Level FlightAware
01:49PM 34.8390 137.2480 66° East 553 636 30,000  Level FlightAware
01:49PM 34.8800 137.3630 66° East 554 638 30,000  Level FlightAware
01:50PM 34.9200 137.4770 67° East 554 638 30,000  Level FlightAware
01:51PM 34.9630 137.5980 67° East 553 636 30,000  Level FlightAware
01:51PM 35.0070 137.7220 67° East 549 632 30,000  Level FlightAware
01:52PM 35.0520 137.8500 67° East 548 631 30,000  Level FlightAware
01:53PM 35.0920 137.9640 67° East 549 632 30,000  Level FlightAware
01:53PM 35.1320 138.0790 67° East 550 633 30,000  Level FlightAware
01:54PM 35.1780 138.2100 67° East 549 632 30,000  Level FlightAware
01:55PM 35.2180 138.3240 67° East 553 636 30,000  Level FlightAware
01:56PM 35.2630 138.4540 67° East 551 634 30,000  Level FlightAware
01:56PM 35.3010 138.5670 68° East 553 636 30,000  Level FlightAware
01:57PM 35.3420 138.6860 67° East 553 636 30,000  Level FlightAware
01:58PM 35.3860 138.8140 67° East 552 635 30,000  Level FlightAware
01:58PM 35.4250 138.9310 68° East 553 636 30,000  Level FlightAware
01:59PM 35.4700 139.0620 67° East 553 636 30,000  Level FlightAware
02:00PM 35.5090 139.1770 67° East 552 635 30,000  Level FlightAware
02:00PM 35.5470 139.2920 68° East 551 634 30,000  Level FlightAware
02:01PM 35.5910 139.4230 68° East 551 634 30,000  Level FlightAware
02:02PM 35.6290 139.5370 68° East 549 632 30,000  Level FlightAware
02:03PM 35.6730 139.6680 68° East 546 628 30,000  Level FlightAware
02:03PM 35.7090 139.7800 68° East 544 626 30,000  Level FlightAware
02:04PM 35.7480 139.8970 68° East 544 626 30,000  Level FlightAware
02:05PM 35.7910 140.0270 68° East 544 626 30,000  Level FlightAware
02:05PM 35.8280 140.1420 68° East 545 627 30,000  Level FlightAware
02:06PM 35.8670 140.2550 67° East 542 624 30,000  Level FlightAware
02:07PM 35.9140 140.3680 63° Northeast 532 612 30,000  Level FlightAware
02:07PM 35.9650 140.4720 59° Northeast 523 602 30,000  Level FlightAware
02:08PM 36.0180 140.5780 58° Northeast 527 606 30,000  Level FlightAware
02:09PM 36.0930 140.7270 58° Northeast 524 603 30,000  Level FlightAware
02:10PM 36.1510 140.8440 58° Northeast 524 603 30,000  Level FlightAware
02:10PM 36.1910 140.9220 58° Northeast 523 602 30,000  Level FlightAware
02:11PM 36.2530 141.0460 58° Northeast 519 597 30,000  Level FlightAware
02:12PM 36.3120 141.1620 58° Northeast 519 597 30,000  Level FlightAware
02:12PM 36.3580 141.2550 58° Northeast 516 594 30,000  Level FlightAware
02:13PM 36.4110 141.3600 58° Northeast 515 593 30,000  Level FlightAware
02:14PM 36.4590 141.4580 59° Northeast 515 593 30,000  Level FlightAware
02:15PM 36.5120 141.5640 58° Northeast 514 592 30,000  Level FlightAware
02:15PM 36.5720 141.6860 58° Northeast 512 589 30,000  Level FlightAware
02:16PM 36.6190 141.7810 58° Northeast 512 589 30,000  Level FlightAware
02:17PM 36.6680 141.8820 59° Northeast 509 586 30,000  Level FlightAware
02:17PM 36.7260 142.0010 59° Northeast 507 583 30,000  Level FlightAware
02:18PM 36.7690 142.0890 59° Northeast 506 582 30,000  Level FlightAware
02:19PM 36.8310 142.2200 59° Northeast 506 582 30,000  Level FlightAware
02:20PM 36.8800 142.3220 59° Northeast 505 581 30,000  Level FlightAware
02:20PM 36.9290 142.4240 59° Northeast 503 579 30,000  Level FlightAware
02:21PM 36.9700 142.5120 60° Northeast 503 579 30,000  Level FlightAware
02:22PM 37.0250 142.6260 59° Northeast 507 583 30,000  Level FlightAware
02:22PM 37.0730 142.7270 59° Northeast 507 583 30,000  Level FlightAware
02:23PM 37.1140 142.8130 59° Northeast 507 583 30,000  Level FlightAware
02:24PM 37.1550 142.8980 59° Northeast 507 583 30,000  Level FlightAware
02:24PM 37.2120 143.0250 61° Northeast 30,000  Level FlightAware
02:25PM 37.2710 143.1540 60° Northeast 497 572 30,000  Level FlightAware
02:26PM 37.3100 143.2390 60° Northeast 497 572 30,000  Level FlightAware
02:27PM 37.3590 143.3450 60° Northeast 497 572 30,000  Level FlightAware
02:27PM 37.4270 143.4890 59° Northeast 498 573 30,000  Level FlightAware
02:28PM 37.4660 143.5750 60° Northeast 498 573 30,000  Level FlightAware
02:29PM 37.5150 143.6820 60° Northeast 498 573 30,000  Level FlightAware
02:30PM 37.5540 143.7670 60° Northeast 498 573 30,000  Level FlightAware
02:30PM 37.5930 143.8530 60° Northeast 498 573 30,000  Level FlightAware
02:31PM 37.6330 143.9390 60° Northeast 498 573 30,000  Level FlightAware
02:32PM 37.6720 144.0240 60° Northeast 498 573 30,000  Level FlightAware
02:32PM 37.7110 144.1100 60° Northeast 498 573 30,000  Level FlightAware
02:33PM 37.7600 144.2170 60° Northeast 498 573 30,000  Level FlightAware
02:34PM 37.7990 144.3030 60° Northeast 498 573 30,000  Level FlightAware
02:34PM 37.8380 144.3890 60° Northeast 498 573 30,000  Level FlightAware
02:35PM 37.8770 144.4750 60° Northeast 498 573 30,000  Level FlightAware
02:36PM 37.9260 144.5820 60° Northeast 498 573 30,000  Level FlightAware
02:37PM 37.9650 144.6680 60° Northeast 498 573 30,000  Level FlightAware
02:39PM 38.1656 144.8972 42° Northeast  Level Estimated
02:40PM 38.2720 145.0195 42° Northeast  Level Estimated
02:41PM 38.3782 145.1421 42° Northeast  Level Estimated
02:42PM 38.4843 145.2650 42° Northeast  Level Estimated
02:43PM 38.5903 145.3884 42° Northeast  Level Estimated
02:44PM 38.6961 145.5121 42° Northeast  Level Estimated
02:45PM 38.8018 145.6361 42° Northeast  Level Estimated
02:46PM 38.9074 145.7605 43° Northeast  Level Estimated
02:47PM 39.0129 145.8853 43° Northeast  Level Estimated
02:48PM 39.1182 146.0105 43° Northeast  Level Estimated
02:49PM 39.2233 146.1360 43° Northeast  Level Estimated
02:50PM 39.3284 146.2619 43° Northeast  Level Estimated
02:51PM 39.4333 146.3882 43° Northeast  Level Estimated
02:52PM 39.5381 146.5149 43° Northeast  Level Estimated
02:53PM 39.6427 146.6419 43° Northeast  Level Estimated
02:54PM 39.7472 146.7694 43° Northeast  Level Estimated
02:55PM 39.8515 146.8972 43° Northeast  Level Estimated
02:56PM 39.9557 147.0254 43° Northeast  Level Estimated
02:57PM 40.0598 147.1540 43° Northeast  Level Estimated
02:58PM 40.1637 147.2830 43° Northeast  Level Estimated
02:59PM 40.2675 147.4124 44° Northeast  Level Estimated
03:00PM 40.3712 147.5422 44° Northeast  Level Estimated
03:01PM 40.4746 147.6724 44° Northeast  Level Estimated
03:02PM 40.5780 147.8030 44° Northeast  Level Estimated
03:03PM 40.6812 147.9340 44° Northeast  Level Estimated
03:04PM 40.7842 148.0654 44° Northeast  Level Estimated
03:05PM 40.8871 148.1972 44° Northeast  Level Estimated
03:06PM 40.9899 148.3294 44° Northeast  Level Estimated
03:07PM 41.0925 148.4620 44° Northeast  Level Estimated
03:08PM 41.1949 148.5951 44° Northeast  Level Estimated
03:09PM 41.2972 148.7285 44° Northeast  Level Estimated
03:10PM 41.3994 148.8624 44° Northeast  Level Estimated
03:11PM 41.5014 148.9967 45° Northeast  Level Estimated
03:12PM 41.6032 149.1315 45° Northeast  Level Estimated
03:13PM 41.7048 149.2666 45° Northeast  Level Estimated
03:14PM 41.8064 149.4022 45° Northeast  Level Estimated
03:15PM 41.9077 149.5382 45° Northeast  Level Estimated
03:16PM 42.0089 149.6746 45° Northeast  Level Estimated
03:17PM 42.1099 149.8115 45° Northeast  Level Estimated
03:18PM 42.2108 149.9488 45° Northeast  Level Estimated
03:19PM 42.3115 150.0866 45° Northeast  Level Estimated
03:20PM 42.4120 150.2248 45° Northeast  Level Estimated
03:21PM 42.5124 150.3634 45° Northeast  Level Estimated
03:22PM 42.6126 150.5025 46° Northeast  Level Estimated
03:23PM 42.7126 150.6420 46° Northeast  Level Estimated
03:24PM 42.8125 150.7820 46° Northeast  Level Estimated
03:25PM 42.9122 150.9224 46° Northeast  Level Estimated
03:26PM 43.0117 151.0633 46° Northeast  Level Estimated
03:27PM 43.1110 151.2047 46° Northeast  Level Estimated
03:28PM 43.2102 151.3465 46° Northeast  Level Estimated
03:29PM 43.3092 151.4887 46° Northeast  Level Estimated
03:30PM 43.4080 151.6315 46° Northeast  Level Estimated
03:31PM 43.5066 151.7747 46° Northeast  Level Estimated
03:32PM 43.6051 151.9183 47° Northeast  Level Estimated
03:33PM 43.7034 152.0625 47° Northeast  Level Estimated
03:34PM 43.8015 152.2071 47° Northeast  Level Estimated
03:35PM 43.8994 152.3522 47° Northeast  Level Estimated
03:36PM 43.9971 152.4977 47° Northeast  Level Estimated
03:37PM 44.0947 152.6438 47° Northeast  Level Estimated
03:38PM 44.1920 152.7903 47° Northeast  Level Estimated
03:39PM 44.2892 152.9373 47° Northeast  Level Estimated
03:40PM 44.3862 153.0848 47° Northeast  Level Estimated
03:41PM 44.4830 153.2328 47° Northeast  Level Estimated
03:42PM 44.5796 153.3812 48° Northeast  Level Estimated
03:43PM 44.6760 153.5302 48° Northeast  Level Estimated
03:44PM 44.7722 153.6797 48° Northeast  Level Estimated
03:45PM 44.8682 153.8296 48° Northeast  Level Estimated
03:46PM 44.9640 153.9801 48° Northeast  Level Estimated
03:47PM 45.0597 154.1310 48° Northeast  Level Estimated
03:48PM 45.1551 154.2825 48° Northeast  Level Estimated
03:49PM 45.2503 154.4345 48° Northeast  Level Estimated
03:50PM 45.3453 154.5870 48° Northeast  Level Estimated
03:51PM 45.4401 154.7400 49° Northeast  Level Estimated
03:52PM 45.5347 154.8935 49° Northeast  Level Estimated
03:53PM 45.6291 155.0475 49° Northeast  Level Estimated
03:54PM 45.7233 155.2021 49° Northeast  Level Estimated
03:55PM 45.8173 155.3572 49° Northeast  Level Estimated
03:56PM 45.9111 155.5128 49° Northeast  Level Estimated
03:57PM 46.0047 155.6689 49° Northeast  Level Estimated
03:58PM 46.0980 155.8255 49° Northeast  Level Estimated
03:59PM 46.1911 155.9827 49° Northeast  Level Estimated
04:00PM 46.2841 156.1404 50° Northeast  Level Estimated
04:01PM 46.3768 156.2987 50° Northeast  Level Estimated
04:02PM 46.4692 156.4575 50° Northeast  Level Estimated
04:03PM 46.5615 156.6168 50° Northeast  Level Estimated
04:04PM 46.6535 156.7767 50° Northeast  Level Estimated
04:05PM 46.7454 156.9371 50° Northeast  Level Estimated
04:06PM 46.8369 157.0980 50° Northeast  Level Estimated
04:07PM 46.9283 157.2595 50° Northeast  Level Estimated
04:08PM 47.0195 157.4216 50° Northeast  Level Estimated
04:09PM 47.1104 157.5842 51° Northeast  Level Estimated
04:10PM 47.2010 157.7474 51° Northeast  Level Estimated
04:11PM 47.2915 157.9111 51° Northeast  Level Estimated
04:12PM 47.3817 158.0754 51° Northeast  Level Estimated
04:13PM 47.4717 158.2402 51° Northeast  Level Estimated
04:14PM 47.5614 158.4057 51° Northeast  Level Estimated
04:15PM 47.6509 158.5717 51° Northeast  Level Estimated
04:16PM 47.7402 158.7382 51° Northeast  Level Estimated
04:17PM 47.8292 158.9053 52° Northeast  Level Estimated
04:17PM 48.2833 160.6833 52° Northeast 556 640 32,000  Level Anchorage Center
04:18PM 47.9180 159.0730 52° Northeast  Level Estimated
04:19PM 48.0065 159.2413 52° Northeast  Level Estimated
04:20PM 48.0948 159.4101 52° Northeast  Level Estimated
04:20PM 48.6500 161.4500 53° Northeast 557 641 32,000  Level Anchorage Center
04:21PM 48.1828 159.5796 52° Northeast  Level Estimated
04:22PM 48.2706 159.7496 52° Northeast  Level Estimated
04:23PM 48.8331 161.7733 53° Northeast 556 640 32,000  Level FlightAware Transoceanic
04:24PM 48.9237 161.9572 53° Northeast 556 640 32,000  Level FlightAware Transoceanic
04:25PM 49.0140 162.1419 53° Northeast 556 640 32,000  Level FlightAware Transoceanic
04:26PM 49.1040 162.3272 54° Northeast 556 640 32,000  Level FlightAware Transoceanic
04:27PM 49.1925 162.5519 54° Northeast 557 641 32,000  Level FlightAware Transoceanic
04:28PM 49.2819 162.7379 54° Northeast 557 641 32,000  Level FlightAware Transoceanic
04:29PM 49.3710 162.9245 54° Northeast 557 641 32,000  Level FlightAware Transoceanic
04:30PM 49.4598 163.1119 54° Northeast 557 641 32,000  Level FlightAware Transoceanic
04:30PM 49.4667 163.2667 54° Northeast 559 643 32,000  Level Anchorage Center
04:31PM 49.5483 163.2999 54° Northeast 557 641 32,000  Level FlightAware Transoceanic
04:32PM 49.6364 163.4886 54° Northeast 557 641 32,000  Level FlightAware Transoceanic
04:33PM 49.7243 163.6780 54° Northeast 557 641 32,000  Level FlightAware Transoceanic
04:34PM 49.8119 163.8681 55° Northeast 557 641 32,000  Level FlightAware Transoceanic
04:35PM 49.8991 164.0588 55° Northeast 557 641 32,000  Level FlightAware Transoceanic
04:36PM 49.9860 164.2503 55° Northeast 557 641 32,000  Level FlightAware Transoceanic
04:37PM 50.0770 164.5774 55° Northeast 559 643 32,000  Level FlightAware Transoceanic
04:38PM 50.1630 164.7673 55° Northeast 559 643 32,000  Level FlightAware Transoceanic
04:39PM 50.2487 164.9580 55° Northeast 559 643 32,000  Level FlightAware Transoceanic
04:40PM 50.3340 165.1493 55° Northeast 559 643 32,000  Level FlightAware Transoceanic
04:40PM 50.2500 165.1167 55° Northeast 544 626 32,000  Level Anchorage Center
04:41PM 50.4191 165.3413 55° Northeast 559 643 32,000  Level FlightAware Transoceanic
04:42PM 50.5038 165.5340 55° Northeast 559 643 32,000  Level FlightAware Transoceanic
04:42PM 50.4000 165.5167 55° Northeast 549 632 32,000  Level Anchorage Center
04:43PM 50.5882 165.7274 56° Northeast 559 643 32,000  Level FlightAware Transoceanic
04:44PM 50.6723 165.9214 56° Northeast 559 643 32,000  Level FlightAware Transoceanic
04:45PM 50.7561 166.1162 56° Northeast 559 643 32,000  Level FlightAware Transoceanic
04:46PM 50.7558 166.2532 55° Northeast 544 626 32,000  Level FlightAware Transoceanic
04:47PM 50.8390 166.4450 56° Northeast 544 626 32,000  Level FlightAware Transoceanic
04:48PM 50.9181 166.6878 56° Northeast 549 632 32,000  Level FlightAware Transoceanic
04:49PM 51.0033 166.8856 56° Northeast 549 632 32,000  Level FlightAware Transoceanic
04:49PM 51.0000 167.0333 55° Northeast 547 629 32,000  Level Anchorage Center
04:50PM 51.0881 167.0840 56° Northeast 549 632 32,000  Level FlightAware Transoceanic
04:51PM 51.1726 167.2832 56° Northeast 549 632 32,000  Level FlightAware Transoceanic
04:52PM 51.2568 167.4831 56° Northeast 549 632 32,000  Level FlightAware Transoceanic
04:53PM 51.3407 167.6837 56° Northeast 549 632 32,000  Level FlightAware Transoceanic
04:54PM 51.4242 167.8851 56° Northeast 549 632 32,000  Level FlightAware Transoceanic
04:55PM 51.4204 168.0101 56° Northeast 547 629 32,000  Level FlightAware Transoceanic
04:56PM 51.5035 168.2076 56° Northeast 547 629 32,000  Level FlightAware Transoceanic
04:57PM 51.5862 168.4058 56° Northeast 547 629 32,000  Level FlightAware Transoceanic
04:58PM 51.6686 168.6048 56° Northeast 547 629 32,000  Level FlightAware Transoceanic
04:59PM 51.7507 168.8044 57° Northeast 547 629 32,000 540 Level FlightAware Transoceanic
04:59PM 51.7333 169.0167 55° Northeast 544 626 32,700 1,800 Climbing Anchorage Center
04:59PM 51.7167 169.0667 55° Northeast 540 621 33,000 -1,020 Climbing Anchorage Center
05:00PM 51.8325 169.0048 57° Northeast 547 629 32,000  Descending FlightAware Transoceanic
05:00PM 51.7833 169.2500 59° Northeast 540 621 33,000  Climbing Anchorage Center
05:01PM 51.9139 169.2059 57° Northeast 547 629 32,000  Descending FlightAware Transoceanic
05:01PM 51.8667 169.4833 60° Northeast 550 633 33,000  Climbing Anchorage Center
05:02PM 51.9949 169.4078 57° Northeast 547 629 32,000  Descending FlightAware Transoceanic
05:02PM 51.9500 169.7167 60° Northeast 540 621 33,000  Climbing Anchorage Center
05:03PM 52.0756 169.6104 57° Northeast 547 629 32,000  Descending FlightAware Transoceanic
05:03PM 52.0167 169.9000 59° Northeast 540 621 33,000  Climbing Anchorage Center
05:04PM 52.1560 169.8137 57° Northeast 547 629 32,000  Descending FlightAware Transoceanic
05:04PM 52.0833 170.1167 63° Northeast 530 610 33,000 600 Climbing Anchorage Center
05:05PM 52.1500 170.3000 59° Northeast 530 610 33,000  Level Anchorage Center
05:06PM 52.2333 170.5333 60° Northeast 530 610 33,000  Level Anchorage Center
05:07PM 52.3000 170.7000 57° Northeast 520 598 33,000  Level Anchorage Center
05:08PM 52.4000 170.9167 53° Northeast 520 598 33,000  Level Anchorage Center
05:09PM 52.4667 171.0833 57° Northeast 520 598 33,000  Level Anchorage Center
05:10PM 52.5667 171.2833 51° Northeast 520 598 33,000  Level Anchorage Center
05:11PM 52.6500 171.5000 58° Northeast 520 598 33,000  Level Anchorage Center
05:12PM 52.7167 171.6667 57° Northeast 510 587 33,000  Level Anchorage Center
05:13PM 52.8167 171.8833 53° Northeast 520 598 33,000  Level Anchorage Center
05:14PM 52.8833 172.0500 56° Northeast 530 610 33,000  Level Anchorage Center
05:16PM 53.0500 172.4333 54° Northeast 510 587 33,000  Level Anchorage Center
05:17PM 53.1500 172.6500 52° Northeast 520 598 33,000  Level Anchorage Center
05:18PM 53.2167 172.8167 56° Northeast 510 587 33,000  Level Anchorage Center
05:19PM 53.3000 173.0333 57° Northeast 520 598 33,000  Level Anchorage Center
05:20PM 53.3833 173.2167 53° Northeast 520 598 33,000  Level Anchorage Center
05:21PM 53.4667 173.4333 57° Northeast 510 587 33,000  Level Anchorage Center
05:22PM 53.5333 173.6000 56° Northeast 510 587 33,000  Level Anchorage Center
05:23PM 53.6167 173.8167 57° Northeast 510 587 33,000  Level Anchorage Center
05:24PM 53.6833 174.0000 58° Northeast 520 598 33,000  Level Anchorage Center
05:25PM 53.7667 174.2333 59° Northeast 520 598 33,000  Level Anchorage Center
05:26PM 53.8333 174.4000 56° Northeast 500 575 33,000  Level Anchorage Center
05:27PM 53.9167 174.6333 59° Northeast 510 587 33,000  Level Anchorage Center
05:28PM 54.0000 174.8500 57° Northeast 510 587 33,000  Level Anchorage Center
05:29PM 54.0667 175.0333 58° Northeast 510 587 33,000  Level Anchorage Center
05:30PM 54.1500 175.2500 57° Northeast 500 575 33,000  Level Anchorage Center
05:31PM 54.2000 175.4333 65° Northeast 500 575 33,000  Level Anchorage Center
05:32PM 54.2833 175.6500 57° Northeast 500 575 33,000  Level Anchorage Center
05:33PM 54.3500 175.8333 58° Northeast 500 575 33,000  Level Anchorage Center
05:34PM 54.4333 176.0500 56° Northeast 500 575 33,000  Level Anchorage Center
05:35PM 54.4833 176.2333 65° Northeast 510 587 33,000  Level Anchorage Center
05:36PM 54.5667 176.4667 58° Northeast 500 575 33,000  Level Anchorage Center
05:37PM 54.6333 176.6500 58° Northeast 510 587 33,000  Level Anchorage Center
05:38PM 54.7000 176.8833 64° Northeast 510 587 33,000  Level Anchorage Center
05:39PM 54.7833 177.1167 58° Northeast 510 587 33,000  Level Anchorage Center
05:40PM 54.8500 177.3000 58° Northeast 500 575 33,000  Level Anchorage Center
05:41PM 54.9167 177.5167 62° Northeast 500 575 33,000  Level Anchorage Center
05:42PM 54.9833 177.7000 58° Northeast 510 587 33,000  Level Anchorage Center
05:45PM 55.0867 178.0119 60° Northeast  Level FlightAware Approximate
05:46PM 55.3000 178.6167 61° Northeast 504 580 33,000  Level Anchorage Center
05:47PM 55.3333 178.7333 61° Northeast 504 580 33,000  Level Anchorage Center
05:52PM 55.5719 179.5662 61° Northeast  Level FlightAware Approximate
05:53PM 55.7233 -179.9807 62° Northeast 504 580 33,000  Level FlightAware Transoceanic
05:54PM 55.7869 -179.7639 63° Northeast 504 580 33,000  Level FlightAware Transoceanic
05:55PM 55.8502 -179.5464 63° Northeast 504 580 33,000  Level FlightAware Transoceanic
05:56PM 55.9131 -179.3282 63° Northeast 504 580 33,000  Level FlightAware Transoceanic
05:56PM 55.9167 -179.2833 63° Northeast 486 559 33,000  Level Anchorage Center
05:57PM 55.9756 -179.1093 63° Northeast 504 580 33,000  Level FlightAware Transoceanic
05:58PM 56.0377 -178.8897 63° Northeast 504 580 33,000  Level FlightAware Transoceanic
05:59PM 56.0995 -178.6694 63° Northeast 504 580 33,000  Level FlightAware Transoceanic
06:00PM 56.1608 -178.4483 64° Northeast 504 580 33,000  Level FlightAware Transoceanic
06:01PM 56.2217 -178.2266 64° Northeast 504 580 33,000  Level FlightAware Transoceanic
06:02PM 56.2823 -178.0041 64° Northeast 504 580 33,000  Level FlightAware Transoceanic
06:03PM 56.2849 -177.9660 64° Northeast 486 559 33,000  Level FlightAware Transoceanic
06:04PM 56.3449 -177.7440 64° Northeast 486 559 33,000  Level FlightAware Transoceanic
06:05PM 56.4045 -177.5214 64° Northeast 486 559 33,000  Level FlightAware Transoceanic
06:06PM 56.4637 -177.2980 64° Northeast 486 559 33,000  Level FlightAware Transoceanic
06:06PM 56.4833 -177.2333 65° Northeast 498 573 33,000  Level Anchorage Center
06:07PM 56.5225 -177.0739 65° Northeast 486 559 33,000  Level FlightAware Transoceanic
06:08PM 56.5808 -176.8491 65° Northeast 486 559 33,000  Level FlightAware Transoceanic
06:09PM 56.6388 -176.6236 65° Northeast 486 559 33,000  Level FlightAware Transoceanic
06:10PM 56.6964 -176.3975 65° Northeast 486 559 33,000  Level FlightAware Transoceanic
06:11PM 56.7536 -176.1706 65° Northeast 486 559 33,000  Level FlightAware Transoceanic
06:11PM 56.7167 -176.3000 65° Northeast 499 574 33,000  Level Anchorage Center
06:12PM 56.8103 -175.9431 66° East 486 559 33,000  Level FlightAware Transoceanic
06:13PM 56.8808 -175.6653 66° East 498 573 33,000  Level FlightAware Transoceanic
06:14PM 56.9360 -175.4386 66° East 498 573 33,000  Level FlightAware Transoceanic
06:15PM 56.9907 -175.2112 66° East 498 573 33,000  Level FlightAware Transoceanic
06:16PM 57.0450 -174.9831 66° East 498 573 33,000  Level FlightAware Transoceanic
06:16PM 57.0167 -175.0833 66° East 495 570 33,000  Level Anchorage Center
06:17PM 57.0616 -174.8926 66° East 499 574 33,000  Level FlightAware Transoceanic
06:17PM 57.0667 -174.7667 68° East 470 541 33,000  Level Anchorage Center
06:18PM 57.1175 -174.6555 67° East 499 574 33,000  Level FlightAware Transoceanic
06:18PM 57.1167 -174.5333 68° East 470 541 33,000  Level Anchorage Center
06:19PM 57.1730 -174.4177 67° East 499 574 33,000  Level FlightAware Transoceanic
06:19PM 57.1667 -174.3167 67° East 470 541 33,000  Level Anchorage Center
06:20PM 57.2281 -174.1792 67° East 499 574 33,000  Level FlightAware Transoceanic
06:20PM 57.2167 -174.1000 67° East 460 529 33,000  Level Anchorage Center
06:21PM 57.2826 -173.9400 67° East 499 574 33,000  Level FlightAware Transoceanic
06:21PM 57.2667 -173.8667 68° East 480 552 33,000  Level Anchorage Center
06:22PM 57.3441 -173.6691 67° East 495 570 33,000  Level FlightAware Transoceanic
06:22PM 57.3167 -173.6333 68° East 470 541 33,000  Level Anchorage Center
06:23PM 57.3971 -173.4309 68° East 495 570 33,000  Level FlightAware Transoceanic
06:23PM 57.3667 -173.4167 67° East 470 541 33,000  Level Anchorage Center
06:24PM 57.4167 -173.1833 68° East 460 529 33,000  Level Anchorage Center
06:25PM 57.4667 -172.9667 67° East 460 529 33,000  Level Anchorage Center
06:26PM 57.5167 -172.7500 67° East 460 529 33,000  Level Anchorage Center
06:27PM 57.5500 -172.5167 75° East 460 529 33,000  Level Anchorage Center
06:28PM 57.6000 -172.3000 67° East 460 529 33,000  Level Anchorage Center
06:29PM 57.6500 -172.0667 68° East 460 529 33,000  Level Anchorage Center
06:30PM 57.7000 -171.8500 67° East 470 541 33,000  Level Anchorage Center
06:31PM 57.7500 -171.6167 68° East 460 529 33,000  Level Anchorage Center
06:32PM 57.7833 -171.4333 71° East 460 529 33,000  Level Anchorage Center
06:33PM 57.8333 -171.2000 68° East 470 541 33,000  Level Anchorage Center
06:34PM 57.8833 -170.9667 68° East 470 541 33,000  Level Anchorage Center
06:35PM 57.9333 -170.7333 68° East 460 529 33,000  Level Anchorage Center
06:36PM 57.9833 -170.5000 68° East 470 541 33,000  Level Anchorage Center
06:37PM 58.0333 -170.2667 68° East 460 529 33,000  Level Anchorage Center
06:38PM 58.0833 -170.0333 68° East 470 541 33,000  Level Anchorage Center
06:39PM 58.1333 -169.8167 66° East 460 529 33,000  Level Anchorage Center
06:40PM 58.1833 -169.5667 69° East 480 552 33,000  Level Anchorage Center
06:41PM 58.2333 -169.3333 68° East 470 541 33,000  Level Anchorage Center
06:42PM 58.2833 -169.1167 66° East 450 518 33,000  Level Anchorage Center
06:43PM 58.3167 -168.8833 75° East 460 529 33,000  Level Anchorage Center
06:44PM 58.3667 -168.6500 68° East 460 529 33,000  Level Anchorage Center
06:45PM 58.4167 -168.4333 66° East 460 529 33,000  Level Anchorage Center
06:46PM 58.4667 -168.2000 68° East 460 529 33,000  Level Anchorage Center
06:47PM 58.5000 -167.9667 75° East 460 529 33,000  Level Anchorage Center
06:48PM 58.5500 -167.7333 68° East 450 518 33,000  Level Anchorage Center
06:49PM 58.5833 -167.5000 75° East 450 518 33,000  Level Anchorage Center
06:50PM 58.6333 -167.2833 66° East 450 518 33,000  Level Anchorage Center
06:51PM 58.6833 -167.0333 69° East 460 529 33,000  Level Anchorage Center
06:52PM 58.7167 -166.8000 75° East 460 529 33,000  Level Anchorage Center
06:53PM 58.7667 -166.5667 67° East 460 529 33,000  Level Anchorage Center
06:54PM 58.8000 -166.3333 74° East 450 518 33,000  Level Anchorage Center
06:55PM 58.8500 -166.1167 66° East 450 518 33,000  Level Anchorage Center
06:56PM 58.8833 -165.8833 74° East 430 495 33,000  Level Anchorage Center
06:57PM 58.9167 -165.6500 74° East 440 506 33,000  Level Anchorage Center
06:58PM 58.9667 -165.4333 66° East 440 506 33,000  Level Anchorage Center
06:59PM 59.0000 -165.2000 74° East 440 506 33,000  Level Anchorage Center
07:00PM 59.0333 -164.9667 74° East 440 506 33,000  Level Anchorage Center
07:01PM 59.0833 -164.7333 67° East 440 506 33,000  Level Anchorage Center
07:02PM 59.1333 -164.5167 66° East 450 518 33,000  Level Anchorage Center
07:03PM 59.1667 -164.2833 74° East 460 529 33,000  Level Anchorage Center
07:04PM 59.2167 -164.0500 67° East 460 529 33,000  Level Anchorage Center
07:05PM 59.2500 -163.8000 75° East 460 529 33,000  Level Anchorage Center
07:06PM 59.2833 -163.5500 75° East 460 529 33,000  Level Anchorage Center
07:07PM 59.3333 -163.3167 67° East 470 541 33,000  Level Anchorage Center
07:08PM 59.3667 -163.0667 75° East 470 541 33,000  Level Anchorage Center
07:09PM 59.4000 -162.8167 75° East 470 541 33,000  Level Anchorage Center
07:10PM 59.4333 -162.6167 72° East 470 541 33,000  Level Anchorage Center
07:11PM 59.4833 -162.3667 68° East 470 541 33,000  Level Anchorage Center
07:12PM 59.5167 -162.1167 75° East 480 552 33,000  Level Anchorage Center
07:13PM 59.5667 -161.8667 68° East 480 552 33,000  Level Anchorage Center
07:14PM 59.6000 -161.6167 75° East 470 541 33,000  Level Anchorage Center
07:15PM 59.6500 -161.3667 68° East 480 552 33,000  Level Anchorage Center
07:16PM 59.6833 -161.1000 76° East 470 541 33,000  Level Anchorage Center
07:17PM 59.7167 -160.8500 75° East 480 552 33,000  Level Anchorage Center
07:18PM 59.7667 -160.6000 68° East 480 552 33,000  Level Anchorage Center
07:19PM 59.8000 -160.3333 76° East 480 552 33,000  Level Anchorage Center
07:20PM 59.8333 -160.0833 75° East 480 552 33,000  Level Anchorage Center
07:21PM 59.8667 -159.8167 76° East 480 552 33,000  Level Anchorage Center
07:22PM 59.9167 -159.5500 69° East 480 552 33,000  Level Anchorage Center
07:23PM 59.9500 -159.2833 76° East 490 564 33,000  Level Anchorage Center
07:24PM 59.9833 -159.0333 75° East 480 552 33,000  Level Anchorage Center
07:25PM 60.0167 -158.7500 77° East 480 552 33,000  Level Anchorage Center
07:26PM 60.0500 -158.4833 76° East 480 552 33,000  Level Anchorage Center
07:27PM 60.0833 -158.2333 75° East 480 552 33,000  Level Anchorage Center
07:28PM 60.1167 -157.9500 77° East 500 575 33,000  Level Anchorage Center
07:29PM 60.1500 -157.6833 76° East 500 575 33,000  Level Anchorage Center
07:30PM 60.1833 -157.4167 76° East 500 575 33,000  Level Anchorage Center
07:31PM 60.2167 -157.1333 77° East 500 575 33,000  Level Anchorage Center
07:32PM 60.2500 -156.8667 76° East 490 564 33,000  Level Anchorage Center
07:33PM 60.2833 -156.5833 77° East 500 575 33,000  Level Anchorage Center
07:34PM 60.3167 -156.3167 76° East 500 575 33,000  Level Anchorage Center
07:35PM 60.3500 -156.0333 77° East 510 587 33,000  Level Anchorage Center
07:36PM 60.3833 -155.7500 76° East 500 575 33,000  Level Anchorage Center
07:37PM 60.4000 -155.4667 83° East 510 587 33,000  Level Anchorage Center
07:38PM 60.4333 -155.2000 76° East 520 598 33,000  Level Anchorage Center
07:44PM 60.5250 -153.5840 76° East 517 595 33,000  Level FlightAware
07:45PM 60.5330 -153.1240 88° East 510 587 33,000  Level FlightAware
07:46PM 60.5380 -152.7860 88° East 508 585 33,000  Level FlightAware
07:48PM 60.5430 -152.4490 88° East 509 586 33,000  Level FlightAware
07:49PM 60.5460 -152.0680 89° East 514 592 33,000  Level FlightAware
07:50PM 60.5480 -151.8730 89° East 515 593 33,000  Level FlightAware
07:50PM 60.5490 -151.6470 89° East 516 594 33,000  Level FlightAware
07:51PM 60.5500 -151.4340 89° East 517 595 33,000  Level FlightAware
07:52PM 60.5510 -151.2490 89° East 518 596 33,000  Level FlightAware
07:52PM 60.5510 -151.0450 90° East 521 600 33,000  Level FlightAware
07:53PM 60.5510 -150.8310 90° East 525 604 33,000  Level FlightAware
07:54PM 60.5510 -150.6290 90° East 528 608 33,000  Level FlightAware
07:55PM 60.5500 -150.4070 90° East 530 610 33,000  Level FlightAware
07:55PM 60.5490 -150.2140 91° East 530 610 33,000  Level FlightAware
07:56PM 60.5480 -150.0070 90° East 531 611 33,000  Level FlightAware
07:56PM 60.5470 -149.8590 91° East 532 612 33,000  Level FlightAware
07:57PM 60.5450 -149.6600 91° East 534 615 33,000  Level FlightAware
07:58PM 60.5430 -149.4350 91° East 536 617 33,000  Level FlightAware
07:58PM 60.5400 -149.2350 92° East 537 618 33,000  Level FlightAware
07:59PM 60.5240 -149.0080 98° East 535 616 33,000  Level FlightAware
08:00PM 60.5090 -148.8160 99° East 538 619 33,000  Level FlightAware
08:01PM 60.4920 -148.5820 98° East 539 620 33,000  Level FlightAware
08:01PM 60.4780 -148.3830 98° East 542 624 33,000  Level FlightAware
08:02PM 60.4670 -148.2090 97° East 542 624 33,000  Level FlightAware
08:03PM 60.4560 -148.0380 97° East 542 624 33,000  Level FlightAware
08:03PM 60.4460 -147.8660 97° East 542 624 33,000  Level FlightAware
08:04PM 60.4330 -147.6520 97° East 542 624 33,000  Level FlightAware
08:05PM 60.4230 -147.4800 97° East 542 624 33,000  Level FlightAware
08:05PM 60.4120 -147.3090 97° East 542 624 33,000  Level FlightAware
08:06PM 60.4020 -147.1370 97° East 542 624 33,000  Level FlightAware
08:07PM 60.3910 -146.9660 97° East 542 624 33,000  Level FlightAware
08:08PM 60.3780 -146.7520 97° East 542 624 33,000  Level FlightAware
08:08PM 60.3680 -146.5810 97° East 542 624 33,000  Level FlightAware
08:09PM 60.3580 -146.4100 97° East 542 624 33,000  Level FlightAware
08:10PM 60.3470 -146.2390 97° East 542 624 33,000  Level FlightAware
08:10PM 60.3370 -146.0680 97° East 542 624 33,000  Level FlightAware
08:11PM 60.3240 -145.8540 97° East 542 624 33,000  Level FlightAware
08:12PM 60.1833 -145.0333 97° East 570 656 33,000  Level Anchorage Center
08:13PM 60.1500 -144.7167 102° East 580 667 33,000  Level Anchorage Center
08:14PM 60.1167 -144.4000 102° East 570 656 33,000  Level Anchorage Center
08:15PM 60.0833 -144.0833 102° East 570 656 33,000  Level Anchorage Center
08:16PM 60.0333 -143.7667 107° East 580 667 33,000  Level Anchorage Center
08:17PM 60.0000 -143.4667 102° East 570 656 33,000  Level Anchorage Center
08:18PM 59.9667 -143.1500 102° East 580 667 33,000  Level Anchorage Center
08:19PM 59.9333 -142.8500 102° East 580 667 33,000  Level Anchorage Center
08:20PM 59.9000 -142.5500 102° East 570 656 33,000  Level Anchorage Center
08:21PM 59.8667 -142.2333 102° East 580 667 33,000  Level Anchorage Center
08:22PM 59.8167 -141.9333 108° East 580 667 33,000  Level Anchorage Center
08:23PM 59.7833 -141.6167 102° East 580 667 33,000  Level Anchorage Center
08:24PM 59.7333 -141.3000 107° East 580 667 33,000  Level Anchorage Center
08:25PM 59.7000 -140.9833 102° East 580 667 33,000  Level Anchorage Center
08:26PM 59.6500 -140.6667 107° East 590 679 33,000  Level Anchorage Center
08:27PM 59.6000 -140.3667 108° East 590 679 33,000  Level Anchorage Center
08:28PM 59.5667 -140.0500 102° East 590 679 33,000  Level Anchorage Center
08:29PM 59.5167 -139.7333 107° East 590 679 33,000  Level Anchorage Center
08:30PM 59.4667 -139.4000 106° East 580 667 33,000  Level Anchorage Center
08:31PM 59.4333 -139.0833 102° East 590 679 33,000  Level Anchorage Center
08:32PM 59.4000 -138.7667 102° East 580 667 33,000  Level Anchorage Center
08:33PM 59.3667 -138.4667 102° East 580 667 33,000  Level Anchorage Center
08:34PM 59.3333 -138.1500 102° East 580 667 33,000  Level Anchorage Center
08:35PM 59.2833 -137.8500 108° East 590 679 33,000  Level Anchorage Center
08:36PM 59.2500 -137.5333 102° East 580 667 33,000  Level Anchorage Center
08:37PM 59.2167 -137.2333 102° East 590 679 33,000  Level Anchorage Center
08:38PM 59.1667 -136.9167 107° East 580 667 33,000  Level Anchorage Center
08:39PM 59.1333 -136.6000 101° East 600 690 33,000  Level Anchorage Center
08:40PM 59.0833 -136.3000 108° East 590 679 33,000  Level Anchorage Center
08:41PM 59.0500 -135.9833 101° East 600 690 33,000  Level Anchorage Center
08:42PM 59.0000 -135.6833 108° East 590 679 33,000  Level Anchorage Center
08:43PM 58.9500 -135.4000 109° East 590 679 33,000  Level Anchorage Center
08:44PM 58.9167 -135.0833 101° East 590 679 33,000  Level Anchorage Center
08:45PM 58.8667 -134.7833 108° East 590 679 33,000  Level Anchorage Center
08:46PM 58.8167 -134.4833 108° East 580 667 33,000  Level Anchorage Center
08:47PM 58.7667 -134.1833 108° East 580 667 33,000  Level Anchorage Center
08:48PM 58.7167 -133.8833 108° East 580 667 33,000  Level Anchorage Center
08:49PM 58.6667 -133.5833 108° East 580 667 33,000  Level Anchorage Center
08:50PM 58.6333 -133.3500 105° East 590 679 33,000 60 Level Anchorage Center
08:53PM 58.5765 -133.0102 108° East  Level FlightAware Approximate
09:00PM 58.2536 -131.2009 110° East  Level FlightAware Approximate
09:01PM 58.2045 -130.9458 110° East  Level FlightAware Approximate
09:02PM 58.1549 -130.6915 110° East  Level FlightAware Approximate
09:03PM 58.1047 -130.4378 110° East  Level FlightAware Approximate
09:04PM 58.0541 -130.1848 111° Southeast  Level FlightAware Approximate
09:05PM 58.0036 -129.9322 110° East  Level FlightAware Approximate
09:06PM 57.9543 -129.6790 110° East  Level FlightAware Approximate
09:07PM 57.9045 -129.4265 110° East  Level FlightAware Approximate
09:08PM 57.8542 -129.1747 110° East  Level FlightAware Approximate
09:09PM 57.8035 -128.9236 111° Southeast  Level FlightAware Approximate
09:10PM 57.7522 -128.6732 111° Southeast  Level FlightAware Approximate
09:11PM 57.7004 -128.4235 111° Southeast  Level FlightAware Approximate
09:12PM 57.6480 -128.1747 113° Southeast  Level FlightAware Approximate
09:13PM 57.5921 -127.9289 113° Southeast  Level FlightAware Approximate
09:14PM 57.5357 -127.6839 113° Southeast  Level FlightAware Approximate
09:15PM 57.4788 -127.4397 113° Southeast  Level FlightAware Approximate
09:16PM 57.4214 -127.1962 114° Southeast  Level FlightAware Approximate
09:17PM 57.3636 -126.9535 114° Southeast  Level FlightAware Approximate
09:18PM 57.3053 -126.7115 114° Southeast  Level FlightAware Approximate
09:19PM 57.2465 -126.4704 114° Southeast  Level FlightAware Approximate
09:20PM 57.1883 -126.2291 114° Southeast  Level FlightAware Approximate
09:21PM 57.1299 -125.9884 114° Southeast  Level FlightAware Approximate
09:21PM 56.8667 -125.0333 115° Southeast 570 656 35,000  Level Edmonton Center
09:22PM 57.0710 -125.7484 114° Southeast  Level FlightAware Approximate
09:22PM 56.8000 -124.8000 117° Southeast 560 644 35,000  Level Edmonton Center
09:23PM 57.0117 -125.5092 114° Southeast  Level FlightAware Approximate
09:23PM 56.7333 -124.5000 112° Southeast 560 644 35,000  Level Edmonton Center
09:24PM 56.9520 -125.2708 115° Southeast  Level FlightAware Approximate
09:24PM 56.6667 -124.2667 117° Southeast 550 633 35,000  Level Edmonton Center
09:25PM 56.8918 -125.0331 115° Southeast  Level FlightAware Approximate
09:25PM 56.6000 -124.0167 116° Southeast 560 644 35,000  Level Edmonton Center
09:26PM 56.8320 -124.7955 115° Southeast  Level FlightAware Approximate
09:26PM 56.5333 -123.7667 116° Southeast 560 644 35,000  Level Edmonton Center
09:27PM 56.4667 -123.5000 114° Southeast 560 644 35,000  Level Edmonton Center
09:28PM 56.4000 -123.2500 116° Southeast 560 644 35,000  Level Edmonton Center
09:29PM 56.3167 -122.9833 119° Southeast 560 644 35,000  Level Edmonton Center
09:30PM 56.2500 -122.7333 116° Southeast 560 644 35,000  Level Edmonton Center
09:31PM 56.1833 -122.4833 116° Southeast 550 633 35,000  Level Edmonton Center
09:32PM 56.1167 -122.2667 119° Southeast 550 633 35,000  Level Edmonton Center
09:33PM 56.0500 -122.0167 115° Southeast 550 633 35,000  Level Edmonton Center
09:34PM 55.9833 -121.7667 115° Southeast 550 633 35,000  Level Edmonton Center
09:35PM 55.9167 -121.5167 115° Southeast 550 633 35,000  Level Edmonton Center
09:36PM 55.8333 -121.2667 121° Southeast 550 633 35,000  Level Edmonton Center
09:37PM 55.7500 -121.0167 121° Southeast 550 633 35,000  Level Edmonton Center
09:38PM 55.7000 -120.8000 112° Southeast 550 633 35,000  Level Edmonton Center
09:39PM 55.6000 -120.5500 125° Southeast 550 633 35,000  Level Edmonton Center
09:40PM 55.5333 -120.3000 115° Southeast 550 633 35,000  Level Edmonton Center
09:41PM 55.4667 -120.0667 117° Southeast 540 621 35,000  Level Edmonton Center
09:42PM 55.3833 -119.8167 120° Southeast 550 633 35,000  Level Edmonton Center
09:43PM 55.3167 -119.5833 117° Southeast 550 633 35,000  Level Edmonton Center
09:44PM 55.2333 -119.3667 124° Southeast 550 633 35,000  Level Edmonton Center
09:45PM 55.1882 -119.1290 108° East  Level FlightAware Approximate
09:45PM 55.1167 -118.9833 108° East 560 644 35,000  Level Edmonton Center
09:46PM 55.0333 -118.7500 122° Southeast 550 633 35,000  Level Edmonton Center
09:47PM 54.9667 -118.5500 120° Southeast 540 621 35,000  Level Edmonton Center
09:48PM 54.8833 -118.3167 122° Southeast 540 621 35,000  Level Edmonton Center
09:49PM 54.7833 -118.0667 125° Southeast 540 621 35,000  Level Edmonton Center
09:50PM 54.7333 -117.8667 113° Southeast 540 621 35,000  Level Edmonton Center
09:51PM 54.6500 -117.6667 126° Southeast 540 621 35,000  Level Edmonton Center
09:57PM 54.2000 -116.3680 126° Southeast 534 615 35,000  Level FlightAware
09:58PM 54.1450 -116.2240 123° Southeast 533 613 35,000  Level FlightAware
09:58PM 54.0710 -116.0340 124° Southeast 532 612 35,000  Level FlightAware
09:59PM 54.0120 -115.8840 124° Southeast 530 610 35,000  Level FlightAware
10:00PM 53.9510 -115.7310 124° Southeast 531 611 35,000  Level FlightAware
10:01PM 53.8970 -115.5930 124° Southeast 530 610 35,000  Level FlightAware
10:01PM 53.8360 -115.4410 124° Southeast 529 609 35,000  Level FlightAware
10:02PM 53.7770 -115.2930 124° Southeast 530 610 35,000  Level FlightAware
10:03PM 53.7160 -115.1430 124° Southeast 529 609 35,000  Level FlightAware
10:03PM 53.6680 -115.0240 124° Southeast 530 610 35,000  Level FlightAware
10:04PM 53.6020 -114.8630 125° Southeast 527 606 35,000  Level FlightAware
10:05PM 53.5390 -114.7100 125° Southeast 527 606 35,000  Level FlightAware
10:06PM 53.4620 -114.5250 125° Southeast 532 612 35,000  Level FlightAware
10:06PM 53.3980 -114.3710 125° Southeast 530 610 35,000  Level FlightAware
10:07PM 53.3270 -114.2020 125° Southeast 528 608 35,000  Level FlightAware
10:08PM 53.2710 -114.0670 125° Southeast 526 605 35,000  Level FlightAware
10:09PM 53.2150 -113.9360 125° Southeast 525 604 35,000  Level FlightAware
10:10PM 53.1050 -113.7180 130° Southeast 528 608 35,000  Level FlightAware
10:10PM 53.0480 -113.6120 132° Southeast 528 608 35,000  Level FlightAware
10:11PM 52.9660 -113.4630 132° Southeast 525 604 35,000  Level FlightAware
10:12PM 52.8770 -113.3000 132° Southeast 524 603 35,000  Level FlightAware
10:13PM 52.8110 -113.1800 132° Southeast 526 605 35,000  Level FlightAware
10:14PM 52.7370 -113.0480 133° Southeast 528 608 35,000  Level FlightAware
10:15PM 52.6220 -112.8400 132° Southeast 525 604 35,000  Level FlightAware
10:16PM 52.5060 -112.6350 133° Southeast 525 604 35,000  Level FlightAware
10:17PM 52.3910 -112.4330 133° Southeast 520 598 35,000  Level FlightAware
10:18PM 52.3340 -112.3320 133° Southeast 520 598 35,000  Level FlightAware
10:19PM 52.2530 -112.1910 133° Southeast 519 597 35,000  Level FlightAware
10:19PM 52.1620 -112.0340 133° Southeast 517 595 35,000  Level FlightAware
10:21PM 52.0210 -111.7920 133° Southeast 515 593 35,000  Level FlightAware
10:22PM 51.9550 -111.6790 133° Southeast 519 597 35,000  Level FlightAware
10:22PM 51.8800 -111.5510 133° Southeast 515 593 35,000  Level FlightAware
10:23PM 51.8160 -111.4450 134° Southeast 515 593 35,000  Level FlightAware
10:26PM 51.5010 -110.9190 134° Southeast 509 586 35,000  Level FlightAware
10:27PM 51.3980 -110.7460 134° Southeast 509 586 35,000  Level FlightAware
10:28PM 51.3060 -110.5960 134° Southeast 510 587 35,000  Level FlightAware
10:29PM 51.2510 -110.5020 133° Southeast 510 587 35,000  Level FlightAware
10:30PM 51.1340 -110.3190 136° Southeast 507 583 35,000  Level FlightAware
10:31PM 51.0640 -110.2050 134° Southeast 507 583 35,000  Level FlightAware
10:31PM 51.0090 -110.1140 134° Southeast 507 583 35,000  Level FlightAware
10:33PM 50.8390 -109.8670 137° Southeast 512 589 35,000  Level FlightAware
10:33PM 50.7790 -109.7820 138° Southeast 512 589 35,000  Level FlightAware
10:34PM 50.7190 -109.6970 138° Southeast 512 589 35,000  Level FlightAware
10:35PM 50.6590 -109.6120 138° Southeast 512 589 35,000  Level FlightAware
10:35PM 50.5990 -109.5270 138° Southeast 512 589 35,000  Level FlightAware
10:36PM 50.5240 -109.4210 138° Southeast 512 589 35,000  Level FlightAware
10:37PM 50.4650 -109.3360 137° Southeast 512 589 35,000  Level FlightAware
10:38PM 50.4050 -109.2520 138° Southeast 512 589 35,000  Level FlightAware
10:38PM 50.3450 -109.1670 138° Southeast 512 589 35,000  Level FlightAware
10:39PM 50.2850 -109.0830 138° Southeast 512 589 35,000  Level FlightAware
10:40PM 50.2100 -108.9770 138° Southeast 512 589 35,000  Level FlightAware
10:40PM 50.1500 -108.8930 138° Southeast 512 589 35,000  Level FlightAware
10:41PM 50.0900 -108.8090 138° Southeast 512 589 35,000  Level FlightAware
10:42PM 50.0310 -108.7250 138° Southeast 512 589 35,000  Level FlightAware
10:42PM 49.7667 -108.5333 138° Southeast 500 575 35,000  Level Edmonton Center
10:43PM 49.6667 -108.4000 139° Southeast 500 575 35,000  Level Edmonton Center
10:44PM 49.5500 -108.2667 143° Southeast 500 575 35,000  Level Edmonton Center
10:45PM 49.4333 -108.1167 140° Southeast 500 575 35,000  Level Edmonton Center
10:46PM 49.3500 -107.9833 134° Southeast 500 575 35,000  Level Edmonton Center
10:47PM 49.2167 -107.8500 147° Southeast 500 575 35,000  Level Edmonton Center
10:48PM 49.1167 -107.7167 139° Southeast 500 575 35,000  Level Edmonton Center
10:49PM 49.0000 -107.5833 143° Southeast 500 575 35,000  Level Edmonton Center
10:50PM 48.9000 -107.4500 139° Southeast 500 575 35,000  Level Edmonton Center
10:51PM 48.8692 -107.3961 131° Southeast 504 580 35,000  Level Salt Lake Center
10:52PM 48.7614 -107.2664 142° Southeast 499 574 35,000  Level Salt Lake Center
10:53PM 48.6522 -107.1378 142° Southeast 499 574 35,000  Level Salt Lake Center
10:54PM 48.5439 -107.0089 142° Southeast 498 573 35,000  Level Salt Lake Center
10:55PM 48.4342 -106.8814 142° Southeast 499 574 35,000 300 Level Salt Lake Center
10:56PM 48.3236 -106.7542 143° Southeast 502 578 35,700 900 Climbing Salt Lake Center
10:57PM 48.2131 -106.6242 142° Southeast 503 579 36,900 600 Climbing Salt Lake Center
10:58PM 48.1183 -106.4683 132° Southeast 508 585 37,000  Climbing Salt Lake Center
10:59PM 48.0106 -106.2792 130° Southeast 505 581 37,000  Level Salt Lake Center
11:00PM 47.9194 -106.1244 131° Southeast 501 577 37,000  Level Salt Lake Center
11:01PM 47.8300 -105.9683 130° Southeast 499 574 37,000  Level Salt Lake Center
11:02PM 47.7369 -105.8147 132° Southeast 502 578 37,000  Level Salt Lake Center
11:03PM 47.6450 -105.6603 131° Southeast 502 578 37,000  Level Salt Lake Center
11:04PM 47.5519 -105.5061 132° Southeast 504 580 37,000  Level Salt Lake Center
11:05PM 47.4578 -105.3539 132° Southeast 505 581 37,000  Level Salt Lake Center
11:06PM 47.3628 -105.1989 132° Southeast 509 586 37,000  Level Salt Lake Center
11:07PM 47.2494 -105.0136 132° Southeast 511 588 37,000  Level Salt Lake Center
11:08PM 47.1536 -104.8608 133° Southeast 512 589 37,000  Level Salt Lake Center
11:09PM 47.0594 -104.7078 132° Southeast 511 588 37,000  Level Salt Lake Center
11:10PM 46.9647 -104.5567 133° Southeast 509 586 37,000  Level Salt Lake Center
11:11PM 46.8689 -104.4061 133° Southeast 509 586 37,000  Level Salt Lake Center
11:12PM 46.7736 -104.2542 132° Southeast 510 587 37,000  Level Salt Lake Center
11:13PM 46.6781 -104.1061 133° Southeast 506 582 37,000  Level Salt Lake Center
11:14PM 46.5636 -103.9269 133° Southeast 506 582 37,000  Level Salt Lake Center
11:15PM 46.4672 -103.7778 133° Southeast 509 586 37,000  Level Salt Lake Center
11:16PM 46.3697 -103.6272 133° Southeast 510 587 37,000  Level Salt Lake Center
11:17PM 46.2736 -103.4778 133° Southeast 511 588 37,000  Level Salt Lake Center
11:18PM 46.1758 -103.3306 134° Southeast 511 588 37,000  Level Salt Lake Center
11:19PM 46.1383 -103.2758 135° Southeast 510 587 37,000  Level Minneapolis Center
11:20PM 46.0403 -103.1278 134° Southeast 511 588 37,000  Level Minneapolis Center
11:21PM 45.9422 -102.9808 134° Southeast 512 589 37,000  Level Minneapolis Center
11:22PM 45.8453 -102.8342 133° Southeast 510 587 37,000  Level Minneapolis Center
11:23PM 45.7467 -102.6878 134° Southeast 511 588 37,000  Level Minneapolis Center
11:24PM 45.6381 -102.5297 134° Southeast 509 586 37,000  Level Minneapolis Center
11:25PM 45.5389 -102.3858 135° Southeast 509 586 37,000  Level Minneapolis Center
11:26PM 45.4408 -102.2392 134° Southeast 512 589 37,000  Level Minneapolis Center
11:27PM 45.3417 -102.0958 135° Southeast 511 588 37,000  Level Minneapolis Center
11:28PM 45.2425 -101.9508 134° Southeast 512 589 37,000  Level Minneapolis Center
11:29PM 45.1419 -101.8089 135° Southeast 512 589 37,000  Level Minneapolis Center
11:30PM 45.0406 -101.6697 136° Southeast 510 587 37,000  Level Minneapolis Center
11:31PM 44.9339 -101.5369 139° Southeast 511 588 37,000  Level Minneapolis Center
11:32PM 44.8264 -101.4075 139° Southeast 511 588 37,000  Level Minneapolis Center
11:33PM 44.6975 -101.2514 139° Southeast 510 587 37,000  Level Minneapolis Center
11:34PM 44.5903 -101.1211 139° Southeast 512 589 37,000  Level Minneapolis Center
11:35PM 44.4819 -100.9919 140° Southeast 513 590 37,000  Level Minneapolis Center
11:36PM 44.3731 -100.8614 139° Southeast 514 592 37,000  Level Minneapolis Center
11:37PM 44.2650 -100.7322 139° Southeast 515 593 37,000  Level Minneapolis Center
11:38PM 44.1558 -100.6019 139° Southeast 517 595 37,000  Level Minneapolis Center
11:39PM 44.0444 -100.4719 140° Southeast 522 601 37,000  Level Minneapolis Center
11:40PM 43.9361 -100.3450 140° Southeast 516 594 37,000  Level Minneapolis Center
11:41PM 43.8503 -100.2442 140° Southeast 511 588 37,000  Level Minneapolis Center
11:42PM 43.7197 -100.0919 140° Southeast 512 589 37,000  Level Minneapolis Center
11:43PM 43.5881 -99.9400 140° Southeast 514 592 37,000  Level Minneapolis Center
11:44PM 43.4569 -99.7886 140° Southeast 514 592 37,000  Level Minneapolis Center
11:45PM 43.3456 -99.6631 141° Southeast 519 597 37,000  Level Minneapolis Center
11:46PM 43.2339 -99.5364 140° Southeast 521 600 37,000  Level Minneapolis Center
11:47PM 43.1236 -99.4117 140° Southeast 518 596 37,000  Level Minneapolis Center
11:48PM 43.0267 -99.3014 140° Southeast 515 593 37,000  Level Minneapolis Center
11:49PM 42.8933 -99.1542 141° Southeast 513 590 37,000  Level Minneapolis Center
11:50PM 42.7831 -99.0275 140° Southeast 516 594 37,000  Level Minneapolis Center
11:51PM 42.6708 -98.9078 142° Southeast 515 593 37,000  Level Minneapolis Center
11:52PM 42.5586 -98.7828 141° Southeast 517 595 37,000  Level Minneapolis Center
11:53PM 42.4475 -98.6583 140° Southeast 518 596 37,000  Level Minneapolis Center
11:54PM 42.3417 -98.5211 136° Southeast 523 602 37,000  Level Minneapolis Center
11:55PM 42.2358 -98.3836 136° Southeast 525 604 37,000  Level Minneapolis Center
11:56PM 42.1286 -98.2458 136° Southeast 529 609 37,000  Level Minneapolis Center
11:57PM 42.0139 -98.0981 136° Southeast 529 609 37,000  Level Minneapolis Center
11:58PM 41.9069 -97.9619 137° Southeast 530 610 37,000  Level Minneapolis Center
11:59PM 41.7997 -97.8275 137° Southeast 530 610 37,000  Level Minneapolis Center
12:00AM 41.6922 -97.6917 137° Southeast 531 611 37,000  Level Minneapolis Center
12:01AM 41.5844 -97.5553 137° Southeast 533 613 37,000  Level Minneapolis Center
12:03AM 41.4767 -97.4217 137° Southeast 531 611 37,000  Level Minneapolis Center
12:04AM 41.3456 -97.2592 137° Southeast 536 617 37,000  Level Minneapolis Center
12:05AM 41.2364 -97.1228 137° Southeast 539 620 37,000  Level Minneapolis Center
12:06AM 41.1264 -96.9889 137° Southeast 540 621 37,000  Level Minneapolis Center
12:07AM 40.9950 -96.8281 137° Southeast 540 621 37,000  Level Minneapolis Center
12:08AM 40.8625 -96.6672 137° Southeast 540 621 37,000  Level Minneapolis Center
12:14AM 40.3520 -96.0260 137° Southeast 540 621 37,000  Level FlightAware
12:15AM 40.2660 -95.9200 137° Southeast 538 619 37,000  Level FlightAware
12:15AM 40.1900 -95.8270 137° Southeast 537 618 37,000  Level FlightAware
12:16AM 40.1120 -95.7310 137° Southeast 540 621 37,000  Level FlightAware
12:17AM 40.0450 -95.6490 137° Southeast 543 625 37,000  Level FlightAware
12:18AM 39.9750 -95.5640 137° Southeast 544 626 37,000  Level FlightAware
12:18AM 39.8760 -95.4440 137° Southeast 546 628 37,000  Level FlightAware
12:19AM 39.8230 -95.3800 137° Southeast 548 631 37,000  Level FlightAware
12:20AM 39.7500 -95.2910 137° Southeast 550 633 37,000  Level FlightAware
12:20AM 39.6910 -95.2210 138° Southeast 549 632 37,000  Level FlightAware
12:21AM 39.6200 -95.1350 137° Southeast 547 629 37,000  Level FlightAware
12:22AM 39.5490 -95.0510 138° Southeast 550 633 37,000  Level FlightAware
12:22AM 39.4450 -94.9270 137° Southeast 555 639 37,000  Level FlightAware
12:23AM 39.3360 -94.7970 137° Southeast 555 639 37,000  Level FlightAware
12:24AM 39.2400 -94.6810 137° Southeast 552 635 37,000  Level FlightAware
12:25AM 39.0350 -94.4200 135° Southeast 530 610 37,000  Level FlightAware
12:25AM 38.9540 -94.3190 136° Southeast 526 605 37,000  Level FlightAware
12:26AM 38.8840 -94.2310 136° Southeast 524 603 37,000  Level FlightAware
12:27AM 38.8090 -94.1380 136° Southeast 525 604 37,000  Level FlightAware
12:27AM 38.7370 -94.0490 136° Southeast 528 608 37,000  Level FlightAware
12:28AM 38.6690 -93.9650 136° Southeast 532 612 37,000  Level FlightAware
12:29AM 38.5860 -93.8620 136° Southeast 533 613 37,000  Level FlightAware
12:29AM 38.5150 -93.7750 136° Southeast 531 611 37,000  Level FlightAware
12:30AM 38.4450 -93.6880 136° Southeast 529 609 37,000  Level FlightAware
12:31AM 38.3760 -93.6040 136° Southeast 529 609 37,000  Level FlightAware
12:32AM 38.2950 -93.5060 136° Southeast 529 609 37,000  Level FlightAware
12:32AM 38.2970 -93.5080 322° Northwest 529 609 37,000  Level FlightAware
12:33AM 38.1280 -93.3030 136° Southeast 536 617 37,000  Level FlightAware
12:35AM 37.9830 -93.1260 136° Southeast 536 617 37,000  Level FlightAware
12:36AM 38.0120 -93.1620 316° Northwest 543 625 37,000  Level FlightAware
12:36AM 37.9510 -93.0870 136° Southeast 543 625 37,000  Level FlightAware
12:37AM 37.7130 -92.8040 137° Southeast 546 628 37,000  Level FlightAware
12:38AM 37.6510 -92.7290 136° Southeast 546 628 37,000  Level FlightAware
12:38AM 37.5900 -92.6530 135° Southeast 546 628 37,000  Level FlightAware
12:39AM 37.5280 -92.5780 136° Southeast 546 628 37,000  Level FlightAware
12:40AM 37.4660 -92.5030 136° Southeast 546 628 37,000  Level FlightAware
12:41AM 37.2958 -92.3175 136° Southeast 545 627 37,000  Level Memphis Center
12:42AM 37.1853 -92.1847 136° Southeast 532 612 37,000  Level Memphis Center
12:43AM 37.0747 -92.0547 137° Southeast 537 618 37,000  Level Memphis Center
12:44AM 36.9575 -91.9275 139° Southeast 542 624 37,000  Level Memphis Center
12:45AM 36.8228 -91.8706 161° South 511 588 37,000  Level Memphis Center
12:46AM 36.6953 -91.9094 194° South 449 517 37,000  Level Memphis Center
12:47AM 36.5819 -91.9669 202° Southwest 436 502 37,000 -120 Level Memphis Center
12:48AM 36.4644 -92.0214 200° South 445 512 36,800 -1,260 Descending Memphis Center
12:49AM 36.3292 -91.9978 172° South 461 531 34,500 -1,800 Descending Memphis Center
12:50AM 36.2247 -91.8542 132° Southeast 476 548 33,200 -1,920 Descending Memphis Center
12:51AM 36.1244 -91.7008 129° Southeast 518 596 30,700 -2,400 Descending Memphis Center
12:52AM 36.0278 -91.5581 130° Southeast 532 612 28,500 -2,100 Descending Memphis Center
12:53AM 35.9311 -91.4208 131° Southeast 537 618 26,600 -1,680 Descending Memphis Center
12:54AM 35.8425 -91.2917 130° Southeast 517 595 25,200 -2,100 Descending Memphis Center
12:55AM 35.7639 -91.1758 130° Southeast 480 552 22,400 -2,160 Descending Memphis Center
12:56AM 35.7019 -91.0881 131° Southeast 448 516 20,900 -1,800 Descending Memphis Center
12:57AM 35.6192 -90.9597 128° Southeast 412 474 18,900 -1,860 Descending Memphis Center
12:58AM 35.5467 -90.8597 132° Southeast 400 460 17,200 -1,740 Descending Memphis Center
12:59AM 35.4739 -90.7522 130° Southeast 405 466 15,500 -1,440 Descending Memphis Center
01:00AM 35.4117 -90.6475 126° Southeast 405 466 14,400 -1,440 Descending Memphis Center
01:01AM 35.3722 -90.5403 114° Southeast 358 412 12,700 -1,500 Descending Memphis Center
01:02AM 35.3244 -90.4461 122° Southeast 334 384 11,400 -1,140 Descending Memphis Center
01:03AM 35.2764 -90.3722 129° Southeast 319 367 10,500 -720 Descending Memphis Center
01:04AM 35.2200 -90.2883 129° Southeast 313 360 10,000 -300 Descending Memphis Center
01:05AM 35.1658 -90.2072 129° Southeast 308 354 10,000 -360 Level Memphis Center
01:06AM 35.1178 -90.1336 129° Southeast 300 345 9,300 -1,200 Descending Memphis Center
01:07AM 35.0778 -90.0578 123° Southeast 274 315 7,700 -1,620 Descending Memphis Center
01:07AM 35.0667 -90.0167 108° East 253 291 7,000 -1,200 Descending KMEM
01:08AM 35.0333 -89.9333 116° Southeast 240 276 6,000 -1,200 Descending KMEM
01:09AM 34.9833 -89.8833 141° Southeast 208 239 4,600 -1,620 Descending KMEM
01:10AM 34.9333 -89.8500 151° Southeast 203 234 2,800 -1,320 Descending KMEM
01:11AM 34.8833 -89.8667 195° South 186 214 2,000 -420 Descending KMEM
01:12AM 34.9000 -89.9167 292° West 193 222 2,000  Level KMEM
01:13AM 34.9333 -89.9667 309° West 201 231 2,000 -480 Level KMEM
01:14AM 34.9833 -89.9667 360° North 176 203 1,100 -900 Descending KMEM
01:16AM 35.0333 -89.9667 316° Northwest  Level FlightAware Approximate
01:23AM 35.0424 -89.9767 316° Northwest  Level Estimated
01:24AM 35.0424 -89.9767 316° Northwest  Level Estimated
01:25AM 35.0424 -89.9767 316° Northwest  Level Estimated
01:26AM 35.0424 -89.9767 316° Northwest  Level Estimated
01:27AM 35.0424 -89.9767 316° Northwest  Level Estimated
01:28AM 35.0424 -89.9767 316° Northwest  Level Estimated
01:29AM 35.0424 -89.9767 316° Northwest  Level Estimated